sensor_id;sensor_type;location;lat;lon;timestamp;pressure;altitude;pressure_sealevel;temperature;humidity
56052;BME280;41919;42.648;23.384;2023-04-07T00:00:14;94193.09;;;2.96;46.62
56052;BME280;41919;42.648;23.384;2023-04-07T00:02:40;94293.16;;;3.58;46.64
56052;BME280;41919;42.648;23.384;2023-04-07T00:05:06;94273.78;;;3.54;46.30
56052;BME280;41919;42.648;23.384;2023-04-07T00:07:32;94208.22;;;3.16;46.34
56052;BME280;41919;42.648;23.384;2023-04-07T00:09:57;94285.50;;;3.73;46.37
56052;BME280;41919;42.648;23.384;2023-04-07T00:12:23;94186.13;;;3.13;46.06
56052;BME280;41919;42.648;23.384;2023-04-07T00:14:48;94239.94;;;3.41;45.94
56052;BME280;41919;42.648;23.384;2023-04-07T00:17:13;94277.81;;;3.57;45.97
56052;BME280;41919;42.648;23.384;2023-04-07T00:19:39;94280.03;;;3.68;45.69
56052;BME280;41919;42.648;23.384;2023-04-07T00:22:04;94266.16;;;3.69;45.52
56052;BME280;41919;42.648;23.384;2023-04-07T00:24:29;94253.59;;;3.58;45.67
56052;BME280;41919;42.648;23.384;2023-04-07T00:26:55;94254.91;;;3.53;45.88
56052;BME280;41919;42.648;23.384;2023-04-07T00:29:21;94277.75;;;3.73;45.49
56052;BME280;41919;42.648;23.384;2023-04-07T00:31:46;94284.88;;;3.71;44.96
56052;BME280;41919;42.648;23.384;2023-04-07T00:34:11;94194.00;;;3.20;45.03
56052;BME280;41919;42.648;23.384;2023-04-07T00:36:37;94215.09;;;3.40;45.07
56052;BME280;41919;42.648;23.384;2023-04-07T00:39:02;94230.28;;;3.34;45.05
56052;BME280;41919;42.648;23.384;2023-04-07T00:41:28;94243.78;;;3.45;44.74
56052;BME280;41919;42.648;23.384;2023-04-07T00:43:53;94197.59;;;3.02;44.84
56052;BME280;41919;42.648;23.384;2023-04-07T00:46:21;94279.09;;;3.61;45.15
56052;BME280;41919;42.648;23.384;2023-04-07T00:48:47;94184.38;;;3.05;45.20
56052;BME280;41919;42.648;23.384;2023-04-07T00:51:13;94260.44;;;3.42;45.00
56052;BME280;41919;42.648;23.384;2023-04-07T00:53:38;94285.03;;;3.22;51.36
56052;BME280;41919;42.648;23.384;2023-04-07T00:56:05;94284.03;;;3.31;54.51
56052;BME280;41919;42.648;23.384;2023-04-07T00:58:30;94288.59;;;3.21;55.83
56052;BME280;41919;42.648;23.384;2023-04-07T01:03:50;94043.88;;;1.30;58.42
56052;BME280;41919;42.648;23.384;2023-04-07T01:06:17;94205.47;;;2.28;58.73
56052;BME280;41919;42.648;23.384;2023-04-07T01:09:04;94263.97;;;2.69;59.06
56052;BME280;41919;42.648;23.384;2023-04-07T01:13:56;94204.16;;;2.24;58.25
56052;BME280;41919;42.648;23.384;2023-04-07T01:16:36;94260.91;;;2.49;59.47
56052;BME280;41919;42.648;23.384;2023-04-07T01:19:14;94219.44;;;2.01;60.14
56052;BME280;41919;42.648;23.384;2023-04-07T01:21:43;94277.81;;;2.35;60.83
56052;BME280;41919;42.648;23.384;2023-04-07T01:24:38;94277.00;;;2.18;62.02
56052;BME280;41919;42.648;23.384;2023-04-07T01:27:37;94278.91;;;2.16;62.77
56052;BME280;41919;42.648;23.384;2023-04-07T01:30:09;94203.63;;;1.71;62.78
56052;BME280;41919;42.648;23.384;2023-04-07T01:32:36;94188.63;;;1.59;62.61
56052;BME280;41919;42.648;23.384;2023-04-07T01:35:03;94202.59;;;1.48;63.56
56052;BME280;41919;42.648;23.384;2023-04-07T01:37:35;94214.69;;;1.55;63.37
56052;BME280;41919;42.648;23.384;2023-04-07T01:40:02;94237.91;;;1.72;62.58
56052;BME280;41919;42.648;23.384;2023-04-07T01:42:30;94247.75;;;1.76;62.95
56052;BME280;41919;42.648;23.384;2023-04-07T01:44:57;94235.69;;;1.85;62.79
56052;BME280;41919;42.648;23.384;2023-04-07T01:47:23;94175.53;;;1.44;63.20
56052;BME280;41919;42.648;23.384;2023-04-07T01:49:53;94190.19;;;1.51;64.03
56052;BME280;41919;42.648;23.384;2023-04-07T01:52:19;94260.88;;;2.08;62.55
56052;BME280;41919;42.648;23.384;2023-04-07T01:54:45;94249.44;;;2.10;62.40
56052;BME280;41919;42.648;23.384;2023-04-07T01:57:11;94245.06;;;2.11;62.42
56052;BME280;41919;42.648;23.384;2023-04-07T01:59:36;94248.66;;;2.26;62.61
56052;BME280;41919;42.648;23.384;2023-04-07T02:02:02;94174.16;;;1.66;63.37
56052;BME280;41919;42.648;23.384;2023-04-07T02:04:34;94217.03;;;2.00;64.01
56052;BME280;41919;42.648;23.384;2023-04-07T02:07:58;94242.34;;;2.04;63.81
56052;BME280;41919;42.648;23.384;2023-04-07T02:09:58;94257.00;;;2.12;63.92
56052;BME280;41919;42.648;23.384;2023-04-07T02:12:29;94215.72;;;1.87;63.32
56052;BME280;41919;42.648;23.384;2023-04-07T02:14:55;94230.72;;;2.00;63.42
56052;BME280;41919;42.648;23.384;2023-04-07T02:17:23;94254.28;;;2.22;63.48
56052;BME280;41919;42.648;23.384;2023-04-07T02:19:51;94141.78;;;1.63;62.95
56052;BME280;41919;42.648;23.384;2023-04-07T02:22:18;94249.16;;;2.38;62.00
56052;BME280;41919;42.648;23.384;2023-04-07T02:24:43;94215.44;;;2.15;62.03
56052;BME280;41919;42.648;23.384;2023-04-07T02:27:09;94253.50;;;2.46;61.75
56052;BME280;41919;42.648;23.384;2023-04-07T02:29:34;94158.88;;;1.89;61.88
56052;BME280;41919;42.648;23.384;2023-04-07T02:32:00;94147.63;;;1.90;61.56
56052;BME280;41919;42.648;23.384;2023-04-07T02:34:25;94112.97;;;1.68;61.73
56052;BME280;41919;42.648;23.384;2023-04-07T02:36:51;94153.25;;;2.02;61.67
56052;BME280;41919;42.648;23.384;2023-04-07T02:39:16;94254.75;;;2.66;61.40
56052;BME280;41919;42.648;23.384;2023-04-07T02:41:41;94250.13;;;2.53;61.51
56052;BME280;41919;42.648;23.384;2023-04-07T02:44:07;94258.34;;;2.57;60.22
56052;BME280;41919;42.648;23.384;2023-04-07T02:46:32;94210.75;;;2.43;60.34
56052;BME280;41919;42.648;23.384;2023-04-07T02:48:58;94193.84;;;2.41;60.30
56052;BME280;41919;42.648;23.384;2023-04-07T02:51:23;94251.38;;;2.74;60.44
56052;BME280;41919;42.648;23.384;2023-04-07T02:53:49;94249.13;;;2.79;60.38
56052;BME280;41919;42.648;23.384;2023-04-07T02:56:15;94263.97;;;2.77;60.18
56052;BME280;41919;42.648;23.384;2023-04-07T02:58:40;94118.47;;;1.73;60.94
56052;BME280;41919;42.648;23.384;2023-04-07T03:01:06;94176.13;;;2.13;61.42
56052;BME280;41919;42.648;23.384;2023-04-07T03:03:31;94258.66;;;2.54;61.70
56052;BME280;41919;42.648;23.384;2023-04-07T03:05:57;94267.97;;;2.55;62.05
56052;BME280;41919;42.648;23.384;2023-04-07T03:08:22;94269.31;;;2.59;62.04
56052;BME280;41919;42.648;23.384;2023-04-07T03:10:47;94252.50;;;2.55;62.17
56052;BME280;41919;42.648;23.384;2023-04-07T03:13:13;94250.91;;;2.54;61.33
56052;BME280;41919;42.648;23.384;2023-04-07T03:15:41;94269.28;;;2.75;61.13
56052;BME280;41919;42.648;23.384;2023-04-07T03:18:06;94211.09;;;2.40;60.87
56052;BME280;41919;42.648;23.384;2023-04-07T03:20:31;94140.19;;;2.03;60.36
56052;BME280;41919;42.648;23.384;2023-04-07T03:22:57;94241.38;;;2.71;60.36
56052;BME280;41919;42.648;23.384;2023-04-07T03:25:22;94267.81;;;2.81;60.35
56052;BME280;41919;42.648;23.384;2023-04-07T03:27:48;94266.22;;;2.39;61.84
56052;BME280;41919;42.648;23.384;2023-04-07T03:30:13;94173.84;;;1.69;62.49
56052;BME280;41919;42.648;23.384;2023-04-07T03:32:38;94248.59;;;1.93;62.99
56052;BME280;41919;42.648;23.384;2023-04-07T03:35:04;94179.59;;;1.46;63.13
56052;BME280;41919;42.648;23.384;2023-04-07T03:37:30;94258.72;;;1.87;64.04
56052;BME280;41919;42.648;23.384;2023-04-07T03:39:55;94260.97;;;1.82;63.66
56052;BME280;41919;42.648;23.384;2023-04-07T03:42:21;94258.94;;;1.59;64.79
56052;BME280;41919;42.648;23.384;2023-04-07T03:44:46;94217.03;;;1.32;65.08
56052;BME280;41919;42.648;23.384;2023-04-07T03:47:12;94236.53;;;1.43;64.96
56052;BME280;41919;42.648;23.384;2023-04-07T03:49:37;94242.38;;;1.53;64.07
56052;BME280;41919;42.648;23.384;2023-04-07T03:52:03;94234.69;;;1.62;63.47
56052;BME280;41919;42.648;23.384;2023-04-07T03:54:29;94233.09;;;1.69;62.25
56052;BME280;41919;42.648;23.384;2023-04-07T03:56:55;94207.00;;;1.72;58.37
56052;BME280;41919;42.648;23.384;2023-04-07T03:59:21;94239.44;;;2.07;56.83
56052;BME280;41919;42.648;23.384;2023-04-07T04:01:47;94258.00;;;2.27;55.27
56052;BME280;41919;42.648;23.384;2023-04-07T04:04:12;94254.13;;;2.48;53.64
56052;BME280;41919;42.648;23.384;2023-04-07T04:06:38;94188.69;;;2.24;53.13
56052;BME280;41919;42.648;23.384;2023-04-07T04:09:03;94170.34;;;2.19;51.64
56052;BME280;41919;42.648;23.384;2023-04-07T04:11:29;94209.63;;;2.54;51.30
56052;BME280;41919;42.648;23.384;2023-04-07T04:13:56;94265.69;;;2.93;52.08
56052;BME280;41919;42.648;23.384;2023-04-07T04:16:21;94276.84;;;2.93;58.50
56052;BME280;41919;42.648;23.384;2023-04-07T04:18:46;94274.91;;;2.79;60.26
56052;BME280;41919;42.648;23.384;2023-04-07T04:21:12;94199.00;;;2.08;61.43
56052;BME280;41919;42.648;23.384;2023-04-07T04:23:37;94283.00;;;2.68;61.33
56052;BME280;41919;42.648;23.384;2023-04-07T04:26:03;94202.56;;;2.23;61.29
56052;BME280;41919;42.648;23.384;2023-04-07T04:28:28;94205.13;;;2.31;61.27
56052;BME280;41919;42.648;23.384;2023-04-07T04:30:54;94281.69;;;2.88;61.04
56052;BME280;41919;42.648;23.384;2023-04-07T04:33:19;94208.66;;;2.47;60.85
56052;BME280;41919;42.648;23.384;2023-04-07T04:35:45;94247.53;;;2.62;60.50
56052;BME280;41919;42.648;23.384;2023-04-07T04:38:11;94301.19;;;2.99;60.16
56052;BME280;41919;42.648;23.384;2023-04-07T04:40:36;94222.38;;;2.55;59.61
56052;BME280;41919;42.648;23.384;2023-04-07T04:43:02;94275.38;;;2.91;59.93
56052;BME280;41919;42.648;23.384;2023-04-07T04:45:31;94233.31;;;2.66;58.95
56052;BME280;41919;42.648;23.384;2023-04-07T04:47:57;94306.34;;;3.07;57.75
56052;BME280;41919;42.648;23.384;2023-04-07T04:50:22;94314.75;;;3.09;58.45
56052;BME280;41919;42.648;23.384;2023-04-07T04:52:48;94309.56;;;3.18;57.71
56052;BME280;41919;42.648;23.384;2023-04-07T04:55:13;94291.81;;;3.23;57.17
56052;BME280;41919;42.648;23.384;2023-04-07T04:57:38;94316.22;;;2.71;58.96
56052;BME280;41919;42.648;23.384;2023-04-07T05:00:06;94296.06;;;2.74;58.25
56052;BME280;41919;42.648;23.384;2023-04-07T05:02:32;94299.91;;;2.87;58.10
56052;BME280;41919;42.648;23.384;2023-04-07T05:04:58;94228.03;;;2.34;59.36
56052;BME280;41919;42.648;23.384;2023-04-07T05:07:23;94229.47;;;2.53;58.29
56052;BME280;41919;42.648;23.384;2023-04-07T05:09:49;94219.47;;;2.50;58.19
56052;BME280;41919;42.648;23.384;2023-04-07T05:12:14;94243.78;;;2.81;58.15
56052;BME280;41919;42.648;23.384;2023-04-07T05:14:40;94257.31;;;2.91;58.15
56052;BME280;41919;42.648;23.384;2023-04-07T05:17:05;94256.00;;;3.11;57.13
56052;BME280;41919;42.648;23.384;2023-04-07T05:19:31;94237.78;;;2.97;57.40
56052;BME280;41919;42.648;23.384;2023-04-07T05:21:57;94334.63;;;3.73;56.99
56052;BME280;41919;42.648;23.384;2023-04-07T05:24:25;94269.47;;;3.46;59.77
56052;BME280;41919;42.648;23.384;2023-04-07T05:26:51;94339.13;;;3.79;57.30
56052;BME280;41919;42.648;23.384;2023-04-07T05:29:16;94322.81;;;3.79;57.97
56052;BME280;41919;42.648;23.384;2023-04-07T05:31:42;94247.28;;;3.60;57.06
56052;BME280;41919;42.648;23.384;2023-04-07T05:34:07;94284.13;;;3.93;57.11
56052;BME280;41919;42.648;23.384;2023-04-07T05:36:34;94327.72;;;4.59;55.33
56052;BME280;41919;42.648;23.384;2023-04-07T05:38:59;94299.59;;;5.32;54.65
56052;BME280;41919;42.648;23.384;2023-04-07T05:41:25;94269.28;;;6.07;50.79
56052;BME280;41919;42.648;23.384;2023-04-07T05:43:50;94332.56;;;7.35;46.51
56052;BME280;41919;42.648;23.384;2023-04-07T05:46:15;94331.00;;;8.04;44.48
56052;BME280;41919;42.648;23.384;2023-04-07T05:48:41;94278.50;;;8.42;41.52
56052;BME280;41919;42.648;23.384;2023-04-07T05:51:06;94329.41;;;8.64;41.40
56052;BME280;41919;42.648;23.384;2023-04-07T05:53:32;94264.19;;;8.24;41.52
56052;BME280;41919;42.648;23.384;2023-04-07T05:55:57;94327.50;;;9.40;39.68
56052;BME280;41919;42.648;23.384;2023-04-07T05:58:23;94328.28;;;10.26;37.65
56052;BME280;41919;42.648;23.384;2023-04-07T06:00:49;94323.56;;;10.93;36.31
56052;BME280;41919;42.648;23.384;2023-04-07T06:03:14;94267.50;;;11.14;35.54
56052;BME280;41919;42.648;23.384;2023-04-07T06:05:40;94292.09;;;11.06;35.70
56052;BME280;41919;42.648;23.384;2023-04-07T06:08:08;94307.53;;;10.89;35.62
56052;BME280;41919;42.648;23.384;2023-04-07T06:10:34;94320.31;;;10.66;35.39
56052;BME280;41919;42.648;23.384;2023-04-07T06:13:00;94251.00;;;10.18;35.72
56052;BME280;41919;42.648;23.384;2023-04-07T06:15:25;94313.56;;;11.40;35.00
56052;BME280;41919;42.648;23.384;2023-04-07T06:17:51;94275.28;;;11.89;33.88
56052;BME280;41919;42.648;23.384;2023-04-07T06:20:16;94322.56;;;12.62;32.43
56052;BME280;41919;42.648;23.384;2023-04-07T06:22:41;94325.06;;;13.29;31.57
56052;BME280;41919;42.648;23.384;2023-04-07T06:25:07;94316.84;;;14.20;30.46
56052;BME280;41919;42.648;23.384;2023-04-07T06:27:34;94308.47;;;15.04;28.77
56052;BME280;41919;42.648;23.384;2023-04-07T06:30:00;94239.44;;;14.39;28.36
56052;BME280;41919;42.648;23.384;2023-04-07T06:32:25;94300.47;;;13.65;30.10
56052;BME280;41919;42.648;23.384;2023-04-07T06:34:50;94308.09;;;14.83;29.00
56052;BME280;41919;42.648;23.384;2023-04-07T06:37:16;94309.56;;;14.62;28.27
56052;BME280;41919;42.648;23.384;2023-04-07T06:39:42;94303.38;;;15.82;26.77
56052;BME280;41919;42.648;23.384;2023-04-07T06:42:07;94318.25;;;14.92;28.09
56052;BME280;41919;42.648;23.384;2023-04-07T06:44:33;94310.38;;;16.32;25.36
56052;BME280;41919;42.648;23.384;2023-04-07T06:46:58;94312.66;;;17.54;24.65
56052;BME280;41919;42.648;23.384;2023-04-07T06:49:24;94310.41;;;18.11;23.51
56052;BME280;41919;42.648;23.384;2023-04-07T06:51:50;94254.38;;;18.19;23.04
56052;BME280;41919;42.648;23.384;2023-04-07T06:54:15;94304.91;;;18.86;22.37
56052;BME280;41919;42.648;23.384;2023-04-07T06:56:41;94307.53;;;18.17;22.88
56052;BME280;41919;42.648;23.384;2023-04-07T06:59:07;94260.78;;;17.43;24.26
56052;BME280;41919;42.648;23.384;2023-04-07T07:01:33;94304.94;;;16.66;24.66
56052;BME280;41919;42.648;23.384;2023-04-07T07:03:58;94316.53;;;15.99;25.56
56052;BME280;41919;42.648;23.384;2023-04-07T07:06:25;94287.78;;;17.50;24.25
56052;BME280;41919;42.648;23.384;2023-04-07T07:08:52;94238.72;;;18.02;23.59
56052;BME280;41919;42.648;23.384;2023-04-07T07:11:17;94296.16;;;18.80;22.94
56052;BME280;41919;42.648;23.384;2023-04-07T07:13:43;94301.69;;;18.78;22.25
56052;BME280;41919;42.648;23.384;2023-04-07T07:16:10;94314.25;;;19.50;21.64
56052;BME280;41919;42.648;23.384;2023-04-07T07:18:37;94324.94;;;20.71;20.12
56052;BME280;41919;42.648;23.384;2023-04-07T07:21:02;94317.22;;;21.20;20.12
56052;BME280;41919;42.648;23.384;2023-04-07T07:23:28;94319.81;;;21.69;19.14
56052;BME280;41919;42.648;23.384;2023-04-07T07:25:53;94314.78;;;21.68;18.78
56052;BME280;41919;42.648;23.384;2023-04-07T07:28:19;94312.44;;;21.22;19.58
56052;BME280;41919;42.648;23.384;2023-04-07T07:30:46;94280.13;;;21.44;18.88
56052;BME280;41919;42.648;23.384;2023-04-07T07:33:11;94331.56;;;21.24;19.75
56052;BME280;41919;42.648;23.384;2023-04-07T07:35:37;94330.03;;;21.07;19.76
56052;BME280;41919;42.648;23.384;2023-04-07T07:38:02;94225.81;;;21.55;18.74
56052;BME280;41919;42.648;23.384;2023-04-07T07:40:28;94316.94;;;22.92;18.19
56052;BME280;41919;42.648;23.384;2023-04-07T07:42:54;94206.53;;;21.39;18.48
56052;BME280;41919;42.648;23.384;2023-04-07T07:45:19;94333.25;;;21.54;18.80
56052;BME280;41919;42.648;23.384;2023-04-07T07:47:45;94334.47;;;20.72;18.05
56052;BME280;41919;42.648;23.384;2023-04-07T07:50:10;94330.97;;;19.61;19.02
56052;BME280;41919;42.648;23.384;2023-04-07T07:52:36;94330.84;;;18.84;20.28
56052;BME280;41919;42.648;23.384;2023-04-07T07:55:01;94344.13;;;17.88;20.33
56052;BME280;41919;42.648;23.384;2023-04-07T07:57:27;94335.69;;;17.27;20.89
56052;BME280;41919;42.648;23.384;2023-04-07T07:59:55;94342.50;;;16.07;22.40
56052;BME280;41919;42.648;23.384;2023-04-07T08:02:20;94327.66;;;15.50;23.30
56052;BME280;41919;42.648;23.384;2023-04-07T08:04:45;94331.78;;;15.97;22.71
56052;BME280;41919;42.648;23.384;2023-04-07T08:07:11;94287.97;;;15.74;22.82
56052;BME280;41919;42.648;23.384;2023-04-07T08:09:37;94341.41;;;16.69;22.43
56052;BME280;41919;42.648;23.384;2023-04-07T08:12:02;94274.28;;;16.82;21.46
56052;BME280;41919;42.648;23.384;2023-04-07T08:14:28;94336.91;;;17.46;20.66
56052;BME280;41919;42.648;23.384;2023-04-07T08:16:54;94338.25;;;17.21;21.26
56052;BME280;41919;42.648;23.384;2023-04-07T08:19:20;94341.50;;;16.35;22.47
56052;BME280;41919;42.648;23.384;2023-04-07T08:21:45;94246.00;;;14.99;23.46
56052;BME280;41919;42.648;23.384;2023-04-07T08:24:11;94321.22;;;15.75;23.04
56052;BME280;41919;42.648;23.384;2023-04-07T08:26:37;94320.94;;;15.59;23.02
56052;BME280;41919;42.648;23.384;2023-04-07T08:29:02;94339.97;;;13.82;24.48
56052;BME280;41919;42.648;23.384;2023-04-07T08:31:27;94333.56;;;12.70;26.41
56052;BME280;41919;42.648;23.384;2023-04-07T08:33:53;94331.06;;;12.45;27.62
56052;BME280;41919;42.648;23.384;2023-04-07T08:36:23;94339.34;;;12.91;27.25
56052;BME280;41919;42.648;23.384;2023-04-07T08:38:48;94279.19;;;12.66;26.47
56052;BME280;41919;42.648;23.384;2023-04-07T08:41:17;94347.72;;;12.32;28.04
56052;BME280;41919;42.648;23.384;2023-04-07T08:43:46;94329.75;;;12.18;28.02
56052;BME280;41919;42.648;23.384;2023-04-07T08:46:14;94344.88;;;12.34;28.03
56052;BME280;41919;42.648;23.384;2023-04-07T08:48:43;94271.78;;;11.95;27.94
56052;BME280;41919;42.648;23.384;2023-04-07T08:51:12;94295.09;;;12.52;27.68
56052;BME280;41919;42.648;23.384;2023-04-07T08:53:48;94308.75;;;12.54;27.73
56052;BME280;41919;42.648;23.384;2023-04-07T08:56:17;94326.22;;;12.91;27.12
56052;BME280;41919;42.648;23.384;2023-04-07T08:58:47;94266.59;;;12.98;26.60
56052;BME280;41919;42.648;23.384;2023-04-07T09:01:13;94290.81;;;13.12;26.34
56052;BME280;41919;42.648;23.384;2023-04-07T09:03:41;94339.16;;;13.58;26.52
56052;BME280;41919;42.648;23.384;2023-04-07T09:06:09;94349.31;;;13.55;26.23
56052;BME280;41919;42.648;23.384;2023-04-07T09:08:35;94274.19;;;13.53;25.83
56052;BME280;41919;42.648;23.384;2023-04-07T09:11:01;94325.91;;;12.99;25.71
56052;BME280;41919;42.648;23.384;2023-04-07T09:13:26;94331.75;;;13.13;26.60
56052;BME280;41919;42.648;23.384;2023-04-07T09:15:52;94265.88;;;13.45;25.94
56052;BME280;41919;42.648;23.384;2023-04-07T09:18:18;94338.47;;;13.75;26.22
56052;BME280;41919;42.648;23.384;2023-04-07T09:21:13;94343.56;;;14.28;24.87
56052;BME280;41919;42.648;23.384;2023-04-07T09:23:39;94283.34;;;13.63;25.37
56052;BME280;41919;42.648;23.384;2023-04-07T09:28:54;94324.88;;;13.89;26.04
56052;BME280;41919;42.648;23.384;2023-04-07T09:31:21;94289.06;;;14.24;25.79
56052;BME280;41919;42.648;23.384;2023-04-07T09:33:50;94269.38;;;14.09;24.59
56052;BME280;41919;42.648;23.384;2023-04-07T09:36:16;94335.41;;;13.78;25.50
56052;BME280;41919;42.648;23.384;2023-04-07T09:38:42;94344.63;;;12.54;26.83
56052;BME280;41919;42.648;23.384;2023-04-07T09:41:14;94318.22;;;11.82;28.60
56052;BME280;41919;42.648;23.384;2023-04-07T09:43:42;94344.94;;;11.47;28.78
56052;BME280;41919;42.648;23.384;2023-04-07T09:46:14;94329.53;;;11.07;30.43
56052;BME280;41919;42.648;23.384;2023-04-07T09:48:41;94255.69;;;10.79;29.90
56052;BME280;41919;42.648;23.384;2023-04-07T09:51:15;94337.50;;;11.44;30.21
56052;BME280;41919;42.648;23.384;2023-04-07T09:53:49;94348.34;;;11.66;29.90
56052;BME280;41919;42.648;23.384;2023-04-07T09:56:18;94281.91;;;11.23;30.00
56052;BME280;41919;42.648;23.384;2023-04-07T09:58:48;94347.78;;;11.38;30.24
56052;BME280;41919;42.648;23.384;2023-04-07T10:01:16;94239.53;;;10.89;30.65
56052;BME280;41919;42.648;23.384;2023-04-07T10:03:42;94368.88;;;11.69;30.65
56052;BME280;41919;42.648;23.384;2023-04-07T10:06:08;94349.19;;;11.85;29.92
56052;BME280;41919;42.648;23.384;2023-04-07T10:08:37;94301.22;;;12.09;30.17
56052;BME280;41919;42.648;23.384;2023-04-07T10:11:04;94370.44;;;12.57;28.96
56052;BME280;41919;42.648;23.384;2023-04-07T10:13:32;94351.66;;;12.42;29.48
56052;BME280;41919;42.648;23.384;2023-04-07T10:15:58;94351.91;;;12.22;28.58
56052;BME280;41919;42.648;23.384;2023-04-07T10:18:28;94342.50;;;12.14;28.56
56052;BME280;41919;42.648;23.384;2023-04-07T10:20:55;94359.31;;;12.43;29.17
56052;BME280;41919;42.648;23.384;2023-04-07T10:23:25;94343.06;;;12.53;29.09
56052;BME280;41919;42.648;23.384;2023-04-07T10:25:53;94352.84;;;12.76;28.38
56052;BME280;41919;42.648;23.384;2023-04-07T10:28:22;94305.38;;;12.35;29.01
56052;BME280;41919;42.648;23.384;2023-04-07T10:30:49;94340.75;;;12.75;28.85
56052;BME280;41919;42.648;23.384;2023-04-07T10:33:16;94335.03;;;12.66;28.57
56052;BME280;41919;42.648;23.384;2023-04-07T10:36:02;94355.09;;;11.80;29.85
56052;BME280;41919;42.648;23.384;2023-04-07T10:38:27;94290.81;;;11.15;30.34
56052;BME280;41919;42.648;23.384;2023-04-07T10:40:53;94227.88;;;10.85;30.47
56052;BME280;41919;42.648;23.384;2023-04-07T10:43:38;94289.16;;;11.21;30.64
56052;BME280;41919;42.648;23.384;2023-04-07T10:46:04;94304.72;;;10.84;30.25
56052;BME280;41919;42.648;23.384;2023-04-07T10:48:30;94371.72;;;11.42;30.89
56052;BME280;41919;42.648;23.384;2023-04-07T10:53:29;94286.91;;;10.74;30.82
56052;BME280;41919;42.648;23.384;2023-04-07T10:55:56;94296.56;;;10.74;31.28
56052;BME280;41919;42.648;23.384;2023-04-07T10:58:32;94377.81;;;10.66;33.27
56052;BME280;41919;42.648;23.384;2023-04-07T11:03:38;94315.53;;;10.04;34.45
56052;BME280;41919;42.648;23.384;2023-04-07T11:06:07;94383.38;;;10.31;34.82
56052;BME280;41919;42.648;23.384;2023-04-07T11:11:10;94373.28;;;10.28;35.00
56052;BME280;41919;42.648;23.384;2023-04-07T11:13:46;94325.13;;;10.17;42.15
56052;BME280;41919;42.648;23.384;2023-04-07T11:16:12;94367.53;;;10.71;35.04
56052;BME280;41919;42.648;23.384;2023-04-07T11:18:39;94367.88;;;10.81;34.11
56052;BME280;41919;42.648;23.384;2023-04-07T11:21:06;94288.16;;;10.65;33.60
56052;BME280;41919;42.648;23.384;2023-04-07T11:23:40;94298.25;;;10.87;33.29
56052;BME280;41919;42.648;23.384;2023-04-07T11:26:07;94311.25;;;11.00;32.61
56052;BME280;41919;42.648;23.384;2023-04-07T11:28:33;94369.53;;;11.39;33.18
56052;BME280;41919;42.648;23.384;2023-04-07T11:30:59;94378.78;;;11.42;32.91
56052;BME280;41919;42.648;23.384;2023-04-07T11:33:28;94353.97;;;11.19;32.71
56052;BME280;41919;42.648;23.384;2023-04-07T11:35:59;94349.75;;;10.86;33.69
56052;BME280;41919;42.648;23.384;2023-04-07T11:38:33;94370.00;;;10.97;34.02
56052;BME280;41919;42.648;23.384;2023-04-07T11:41:08;94378.66;;;10.98;34.06
56052;BME280;41919;42.648;23.384;2023-04-07T11:43:34;94381.38;;;10.78;33.84
56052;BME280;41919;42.648;23.384;2023-04-07T11:46:15;94377.72;;;10.86;34.49
56052;BME280;41919;42.648;23.384;2023-04-07T11:48:42;94296.72;;;10.47;33.76
56052;BME280;41919;42.648;23.384;2023-04-07T11:51:19;94280.53;;;10.18;33.85
56052;BME280;41919;42.648;23.384;2023-04-07T11:53:45;94356.16;;;10.58;34.64
56052;BME280;41919;42.648;23.384;2023-04-07T11:56:15;94334.91;;;10.42;34.64
56052;BME280;41919;42.648;23.384;2023-04-07T11:58:49;94367.75;;;10.69;35.54
56052;BME280;41919;42.648;23.384;2023-04-07T12:01:15;94283.06;;;9.87;35.31
56052;BME280;41919;42.648;23.384;2023-04-07T12:03:55;94358.00;;;10.45;35.18
56052;BME280;41919;42.648;23.384;2023-04-07T12:06:31;94303.66;;;10.15;35.77
56052;BME280;41919;42.648;23.384;2023-04-07T12:09:06;94290.38;;;10.16;35.37
56052;BME280;41919;42.648;23.384;2023-04-07T12:11:32;94370.84;;;10.46;35.50
56052;BME280;41919;42.648;23.384;2023-04-07T12:13:58;94367.94;;;10.68;36.30
56052;BME280;41919;42.648;23.384;2023-04-07T12:16:24;94369.69;;;10.81;36.07
56052;BME280;41919;42.648;23.384;2023-04-07T12:18:50;94367.03;;;10.87;35.58
56052;BME280;41919;42.648;23.384;2023-04-07T12:21:17;94335.00;;;10.67;35.60
56052;BME280;41919;42.648;23.384;2023-04-07T12:23:43;94363.03;;;10.85;35.61
56052;BME280;41919;42.648;23.384;2023-04-07T12:26:08;94360.34;;;10.98;35.61
56052;BME280;41919;42.648;23.384;2023-04-07T12:28:36;94282.28;;;10.38;34.76
56052;BME280;41919;42.648;23.384;2023-04-07T12:31:02;94313.22;;;10.28;35.54
56052;BME280;41919;42.648;23.384;2023-04-07T12:33:27;94303.78;;;9.55;36.89
56052;BME280;41919;42.648;23.384;2023-04-07T12:35:53;94367.31;;;10.20;36.81
56052;BME280;41919;42.648;23.384;2023-04-07T12:38:19;94295.72;;;9.76;37.01
56052;BME280;41919;42.648;23.384;2023-04-07T12:40:45;94377.31;;;10.24;37.12
56052;BME280;41919;42.648;23.384;2023-04-07T12:43:10;94375.50;;;10.44;37.24
56052;BME280;41919;42.648;23.384;2023-04-07T12:45:36;94316.72;;;10.08;36.48
56052;BME280;41919;42.648;23.384;2023-04-07T12:48:01;94377.25;;;10.57;36.09
56052;BME280;41919;42.648;23.384;2023-04-07T12:50:27;94190.66;;;9.49;35.92
56052;BME280;41919;42.648;23.384;2023-04-07T12:52:53;94376.16;;;10.71;35.96
56052;BME280;41919;42.648;23.384;2023-04-07T12:55:19;94378.38;;;10.74;35.56
56052;BME280;41919;42.648;23.384;2023-04-07T12:57:45;94395.19;;;10.85;36.34
56052;BME280;41919;42.648;23.384;2023-04-07T13:00:13;94384.44;;;10.68;36.58
56052;BME280;41919;42.648;23.384;2023-04-07T13:02:38;94368.19;;;10.59;36.38
56052;BME280;41919;42.648;23.384;2023-04-07T13:05:04;94378.19;;;10.76;36.29
56052;BME280;41919;42.648;23.384;2023-04-07T13:07:30;94344.13;;;10.51;36.23
56052;BME280;41919;42.648;23.384;2023-04-07T13:09:55;94331.94;;;10.31;36.53